createdAt,value
2022-08-07T00:01:43.938Z,93321.22
2022-08-07T00:04:09.484Z,93324.91
2022-08-07T00:06:51.276Z,93335.22
2022-08-07T00:09:22.789Z,93323.84
2022-08-07T00:11:55.373Z,93322.03
2022-08-07T00:14:30.024Z,93327.06
2022-08-07T00:17:01.795Z,93320.75
2022-08-07T00:19:34.111Z,93327.16
2022-08-07T00:22:24.649Z,93322.91
2022-08-07T00:25:07.060Z,93315.50
2022-08-07T00:27:35.773Z,93312.84
2022-08-07T00:30:26.820Z,93308.38
2022-08-07T00:32:56.174Z,93301.75
2022-08-07T00:35:24.648Z,93294.63
2022-08-07T00:37:51.866Z,93297.53
2022-08-07T00:40:36.124Z,93294.88
2022-08-07T00:43:03.948Z,93297.78
2022-08-07T00:45:36.741Z,93294.41
2022-08-07T00:48:07.917Z,93292.56
2022-08-07T00:50:51.341Z,93284.91
2022-08-07T00:53:20.544Z,93284.16
2022-08-07T00:56:02.346Z,93291.31
2022-08-07T00:58:30.329Z,93288.41
2022-08-07T01:00:57.126Z,93291.84
2022-08-07T01:03:54.873Z,93295.53
2022-08-07T01:06:10.602Z,93284.44
2022-08-07T01:08:51.375Z,93288.13
2022-08-07T01:12:27.578Z,93283.94
2022-08-07T01:14:08.007Z,93286.59
2022-08-07T01:16:36.745Z,93280.81
2022-08-07T01:19:14.816Z,93279.75
2022-08-07T01:21:47.250Z,93270.25
2022-08-07T01:24:14.323Z,93264.47
2022-08-07T01:26:51.635Z,93262.34
2022-08-07T01:29:22.754Z,93267.13
2022-08-07T01:31:51.819Z,93267.66
2022-08-07T01:34:19.647Z,93265.81
2022-08-07T01:36:57.877Z,93266.88
2022-08-07T01:39:40.482Z,93259.72
2022-08-07T01:42:39.772Z,93258.16
2022-08-07T01:45:17.874Z,93257.13
2022-08-07T01:48:27.407Z,93252.09
2022-08-07T01:50:37.332Z,93256.06
2022-08-07T01:53:09.143Z,93256.06
2022-08-07T01:55:44.167Z,93254.22
2022-08-07T01:58:27.283Z,93251.84
2022-08-07T02:01:10.036Z,93260.81
2022-08-07T02:03:56.394Z,93248.97
2022-08-07T02:06:31.241Z,93247.91
2022-08-07T02:09:05.983Z,93247.13
2022-08-07T02:12:03.528Z,93253.19
2022-08-07T02:14:40.331Z,93253.47
2022-08-07T02:17:16.634Z,93254.22
2022-08-07T02:20:04.797Z,93253.47
2022-08-07T02:22:38.441Z,93249.78
2022-08-07T02:25:13.813Z,93256.38
2022-08-07T02:27:54.712Z,93245.03
2022-08-07T02:30:22.693Z,93246.63
2022-08-07T02:33:00.622Z,93249.50
2022-08-07T02:36:30.865Z,93255.31
2022-08-07T02:38:35.606Z,93249.25
2022-08-07T02:41:04.713Z,93260.31
2022-08-07T02:43:37.937Z,93252.94
2022-08-07T02:46:07.439Z,93247.91
2022-08-07T02:48:35.759Z,93253.47
2022-08-07T02:51:29.282Z,93241.84
2022-08-07T02:53:58.228Z,93238.19
2022-08-07T02:56:28.697Z,93245.81
2022-08-07T02:59:02.098Z,93244.47
2022-08-07T03:01:35.093Z,93234.47
2022-08-07T03:04:07.748Z,93238.41
2022-08-07T03:06:46.168Z,93235.78
2022-08-07T03:09:44.659Z,93238.69
2022-08-07T03:12:06.671Z,93233.94
2022-08-07T03:14:37.750Z,93232.09
2022-08-07T03:17:08.801Z,93236.06
2022-08-07T03:19:37.367Z,93237.09
2022-08-07T03:22:07.867Z,93233.94
2022-08-07T03:24:46.097Z,93229.16
2022-08-07T03:27:14.733Z,93232.88
2022-08-07T03:29:59.975Z,93232.34
2022-08-07T03:32:33.489Z,93236.03
2022-08-07T03:35:17.726Z,93233.38
2022-08-07T03:37:53.505Z,93230.22
2022-08-07T03:40:27.464Z,93235.50
2022-08-07T03:43:04.491Z,93241.25
2022-08-07T03:45:43.504Z,93241.81
2022-08-07T03:48:15.759Z,93240.72
2022-08-07T03:50:55.652Z,93243.88
2022-08-07T03:53:49.919Z,93243.63
2022-08-07T03:56:14.316Z,93245.47
2022-08-07T03:59:08.326Z,93244.66
2022-08-07T04:01:30.188Z,93242.53
2022-08-07T04:03:59.196Z,93244.91
2022-08-07T04:06:37.423Z,93232.25
2022-08-07T04:09:15.991Z,93228.03
2022-08-07T04:12:23.581Z,93239.34
2022-08-07T04:14:39.027Z,93241.66
2022-08-07T04:17:19.758Z,93233.22
2022-08-07T04:19:52.667Z,93240.06
2022-08-07T04:22:27.594Z,93240.06
2022-08-07T04:25:01.352Z,93236.59
2022-08-07T04:27:29.056Z,93244.25
2022-08-07T04:30:10.249Z,93239.50
2022-08-07T04:32:58.140Z,93235.25
2022-08-07T04:35:35.310Z,93241.84
2022-08-07T04:38:14.189Z,93243.44
2022-08-07T04:40:51.607Z,93247.63
2022-08-07T04:43:53.531Z,93248.41
2022-08-07T04:46:20.078Z,93238.16
2022-08-07T04:49:24.372Z,93244.47
2022-08-07T04:52:08.456Z,93241.81
2022-08-07T04:54:59.863Z,93244.19
2022-08-07T04:58:16.317Z,93240.50
2022-08-07T05:00:40.447Z,93243.66
2022-08-07T05:03:38.912Z,93252.06
2022-08-07T05:07:00.211Z,93256.00
2022-08-07T05:09:57.903Z,93252.59
2022-08-07T05:12:51.370Z,93254.19
2022-08-07T05:15:25.703Z,93263.69
2022-08-07T05:18:00.429Z,93266.09
2022-08-07T05:20:54.898Z,93274.81
2022-08-07T05:23:29.972Z,93276.50
2022-08-07T05:26:13.701Z,93279.66
2022-08-07T05:28:50.025Z,93278.13
2022-08-07T05:31:22.162Z,93288.44
2022-08-07T05:34:05.147Z,93283.69
2022-08-07T05:36:42.473Z,93280.31
2022-08-07T05:40:07.345Z,93280.59
2022-08-07T05:42:12.528Z,93280.31
2022-08-07T05:44:46.437Z,93282.44
2022-08-07T05:47:38.085Z,93275.88
2022-08-07T05:50:10.014Z,93279.31
2022-08-07T05:52:36.916Z,93276.69
2022-08-07T05:55:10.769Z,93278.50
2022-08-07T05:57:42.680Z,93276.66
2022-08-07T06:00:16.026Z,93278.53
2022-08-07T06:02:53.718Z,93274.56
2022-08-07T06:05:28.184Z,93276.13
2022-08-07T06:08:30.316Z,93281.66
2022-08-07T06:10:51.349Z,93282.47
2022-08-07T06:14:10.707Z,93275.59
2022-08-07T06:16:10.044Z,93279.31
2022-08-07T06:18:39.567Z,93276.63
2022-08-07T06:22:16.971Z,93271.88
2022-08-07T06:24:52.288Z,93276.88
2022-08-07T06:26:45.152Z,93282.09
2022-08-07T06:29:14.184Z,93276.78
2022-08-07T06:31:49.883Z,93283.38
2022-08-07T06:34:20.767Z,93283.09
2022-08-07T06:36:52.137Z,93278.28
2022-08-07T06:40:15.663Z,93281.44
2022-08-07T06:42:35.167Z,93276.91
2022-08-07T06:45:18.302Z,93277.06
2022-08-07T06:47:58.854Z,93270.16
2022-08-07T06:50:33.487Z,93279.09
2022-08-07T06:53:04.101Z,93279.31
2022-08-07T06:55:54.021Z,93276.06
2022-08-07T06:58:27.631Z,93281.31
2022-08-07T07:01:06.973Z,93276.50
2022-08-07T07:03:49.125Z,93284.91
2022-08-07T07:06:26.109Z,93275.09
2022-08-07T07:08:54.390Z,93277.97
2022-08-07T07:12:09.131Z,93287.41
2022-08-07T07:14:10.048Z,93275.91
2022-08-07T07:16:49.669Z,93280.63
2022-08-07T07:19:57.751Z,93276.28
2022-08-07T07:22:32.196Z,93272.50
2022-08-07T07:25:02.752Z,93279.06
2022-08-07T07:27:35.675Z,93269.25
2022-08-07T07:30:37.979Z,93272.16
2022-08-07T07:33:07.771Z,93277.91
2022-08-07T07:35:51.831Z,93270.41
2022-08-07T07:38:26.003Z,93268.56
2022-08-07T07:41:01.868Z,93267.16
2022-08-07T07:44:13.714Z,93262.28
2022-08-07T07:46:37.413Z,93269.63
2022-08-07T07:49:09.179Z,93267.47
2022-08-07T07:51:58.164Z,93262.59
2022-08-07T07:54:28.042Z,93259.38
2022-08-07T07:56:57.494Z,93260.84
2022-08-07T07:59:51.487Z,93258.03
2022-08-07T08:02:34.093Z,93255.31
2022-08-07T08:05:14.171Z,93258.03
2022-08-07T08:07:59.649Z,93259.06
2022-08-07T08:10:37.907Z,93268.38
2022-08-07T08:13:10.664Z,93260.53
2022-08-07T08:15:58.335Z,93264.00
2022-08-07T08:18:28.090Z,93254.28
2022-08-07T08:20:58.565Z,93255.25
2022-08-07T08:23:46.647Z,93249.09
2022-08-07T08:26:34.431Z,93257.75
2022-08-07T08:29:04.227Z,93256.00
2022-08-07T08:31:58.718Z,93263.28
2022-08-07T08:34:33.604Z,93255.53
2022-08-07T08:37:02.832Z,93256.34
2022-08-07T08:39:39.523Z,93259.41
2022-08-07T08:42:34.167Z,93260.97
2022-08-07T08:45:13.201Z,93253.00
2022-08-07T08:47:56.296Z,93263.34
2022-08-07T08:50:39.790Z,93265.53
2022-08-07T08:53:51.810Z,93257.19
2022-08-07T08:56:27.563Z,93261.22
2022-08-07T08:59:20.566Z,93254.91
2022-08-07T09:02:05.217Z,93258.97
2022-08-07T09:04:47.194Z,93255.16
2022-08-07T09:07:16.741Z,93254.00
2022-08-07T09:10:07.953Z,93255.56
2022-08-07T09:12:53.021Z,93250.13
2022-08-07T09:16:24.754Z,93250.81
2022-08-07T09:18:41.452Z,93255.31
2022-08-07T09:21:57.769Z,93251.19
2022-08-07T09:24:59.098Z,93251.47
2022-08-07T09:28:00.537Z,93251.34
2022-08-07T09:30:55.249Z,93256.06
2022-08-07T09:33:57.656Z,93244.22
2022-08-07T09:36:28.571Z,93250.88
2022-08-07T09:39:54.598Z,93241.72
2022-08-07T09:42:39.048Z,93255.00
2022-08-07T09:47:51.360Z,93252.16
2022-08-07T09:48:19.021Z,93249.25
2022-08-07T09:50:55.981Z,93243.66
2022-08-07T09:53:24.510Z,93240.72
2022-08-07T09:56:37.206Z,93247.63
2022-08-07T09:59:26.890Z,93242.03
2022-08-07T10:02:29.556Z,93228.75
2022-08-07T10:06:01.305Z,93227.44
2022-08-07T10:08:40.565Z,93227.50
2022-08-07T10:12:01.167Z,93230.69
2022-08-07T10:14:37.059Z,93223.78
2022-08-07T10:18:01.758Z,93216.16
2022-08-07T10:20:57.896Z,93223.31
2022-08-07T10:24:06.303Z,93220.91
2022-08-07T10:26:53.787Z,93227.38
2022-08-07T10:30:06.973Z,93222.53
2022-08-07T10:33:00.048Z,93216.75
2022-08-07T10:35:55.425Z,93214.25
2022-08-07T10:38:42.154Z,93215.69
2022-08-07T10:41:52.413Z,93216.03
2022-08-07T10:44:38.398Z,93203.75
2022-08-07T10:47:16.049Z,93207.22
2022-08-07T10:49:55.687Z,93211.69
2022-08-07T10:52:33.893Z,93205.22
2022-08-07T10:55:27.041Z,93205.81
2022-08-07T10:58:32.973Z,93201.84
2022-08-07T11:01:24.981Z,93199.31
2022-08-07T11:04:23.174Z,93203.09
2022-08-07T11:06:58.233Z,93202.72
2022-08-07T11:10:09.676Z,93198.25
2022-08-07T11:12:49.239Z,93202.59
2022-08-07T11:15:34.163Z,93200.72
2022-08-07T11:18:18.281Z,93202.31
2022-08-07T11:21:03.135Z,93195.84
2022-08-07T11:23:45.598Z,93189.75
2022-08-07T11:26:31.334Z,93195.56
2022-08-07T11:29:13.202Z,93188.84
2022-08-07T11:32:01.854Z,93185.13
2022-08-07T11:34:50.625Z,93182.28
2022-08-07T11:37:38.624Z,93186.03
2022-08-07T11:40:53.913Z,93179.28
2022-08-07T11:43:41.540Z,93189.34
2022-08-07T11:46:30.300Z,93174.91
2022-08-07T11:49:51.068Z,93178.59
2022-08-07T11:52:19.745Z,93190.13
2022-08-07T11:56:25.317Z,93184.50
2022-08-07T11:58:57.456Z,93177.66
2022-08-07T12:01:59.042Z,93177.31
2022-08-07T12:04:49.277Z,93174.25
2022-08-07T12:07:38.992Z,93169.91
2022-08-07T12:10:19.171Z,93169.38
2022-08-07T12:13:03.370Z,93163.66
2022-08-07T12:16:05.779Z,93161.00
2022-08-07T12:18:45.131Z,93161.13
2022-08-07T12:21:21.183Z,93166.06
2022-08-07T12:24:38.181Z,93161.97
2022-08-07T12:27:18.507Z,93163.91
2022-08-07T12:30:02.947Z,93158.06
2022-08-07T12:32:49.097Z,93146.38
2022-08-07T12:35:17.375Z,93159.75
2022-08-07T12:38:10.732Z,93163.44
2022-08-07T12:40:48.528Z,93155.16
2022-08-07T12:44:02.110Z,93161.19
2022-08-07T12:46:32.772Z,93152.59
2022-08-07T12:49:48.665Z,93153.38
2022-08-07T12:52:28.965Z,93151.50
2022-08-07T12:55:17.684Z,93153.66
2022-08-07T12:58:01.085Z,93146.53
2022-08-07T13:00:52.095Z,93149.50
2022-08-07T13:04:02.939Z,93147.53
2022-08-07T13:07:05.273Z,93154.72
2022-08-07T13:10:28.390Z,93147.94
2022-08-07T13:12:56.155Z,93144.13
2022-08-07T13:15:36.099Z,93139.16
2022-08-07T13:18:34.311Z,93143.34
2022-08-07T13:21:37.842Z,93141.91
2022-08-07T13:24:29.307Z,93142.84
2022-08-07T13:27:20.509Z,93135.19
2022-08-07T13:29:56.133Z,93140.88
2022-08-07T13:32:41.402Z,93140.22
2022-08-07T13:35:21.275Z,93139.97
2022-08-07T13:38:08.832Z,93136.53
2022-08-07T13:41:13.493Z,93124.34
2022-08-07T13:43:52.398Z,93125.47
2022-08-07T13:46:33.356Z,93124.34
2022-08-07T13:49:03.707Z,93129.75
2022-08-07T13:52:04.913Z,93121.16
2022-08-07T13:54:30.389Z,93114.03
2022-08-07T13:57:02.683Z,93115.56
2022-08-07T13:59:34.249Z,93110.81
2022-08-07T14:02:10.683Z,93119.91
2022-08-07T14:04:54.361Z,93106.75
2022-08-07T14:07:27.434Z,93110.31
2022-08-07T14:10:02.135Z,93112.34
2022-08-07T14:12:57.440Z,93114.88
2022-08-07T14:15:31.968Z,93111.16
2022-08-07T14:18:29.893Z,93111.91
2022-08-07T14:21:20.632Z,93112.56
2022-08-07T14:24:08.939Z,93104.50
2022-08-07T14:26:51.213Z,93106.75
2022-08-07T14:30:09.346Z,93105.03
2022-08-07T14:32:12.687Z,93111.13
2022-08-07T14:37:36.376Z,93103.59
2022-08-07T14:40:16.211Z,93104.25
2022-08-07T14:43:58.940Z,93099.59
2022-08-07T14:46:11.375Z,93103.25
2022-08-07T14:52:04.500Z,93092.19
2022-08-07T14:57:18.846Z,93100.19
2022-08-07T15:00:03.253Z,93091.91
2022-08-07T15:02:34.924Z,93085.63
2022-08-07T15:05:03.041Z,93080.69
2022-08-07T15:07:51.020Z,93084.47
2022-08-07T15:10:26.721Z,93081.25
2022-08-07T15:13:11.585Z,93090.63
2022-08-07T15:15:42.067Z,93092.47
2022-08-07T15:18:28.606Z,93090.16
2022-08-07T15:21:08.283Z,93089.94
2022-08-07T15:27:10.025Z,93086.47
2022-08-07T15:30:08.644Z,93076.19
2022-08-07T15:36:01.927Z,93063.69
2022-08-07T15:38:17.594Z,93076.72
2022-08-07T15:41:23.865Z,93071.00
2022-08-07T15:44:01.030Z,93078.41
2022-08-07T15:49:18.103Z,93076.38
2022-08-07T15:54:30.864Z,93064.28
2022-08-07T15:57:03.376Z,93059.19
2022-08-07T15:59:39.824Z,93067.91
2022-08-07T16:02:23.810Z,93073.94
2022-08-07T16:04:57.699Z,93064.53
2022-08-07T16:08:31.234Z,93065.06
2022-08-07T16:10:22.646Z,93059.47
2022-08-07T16:13:57.606Z,93065.06
2022-08-07T16:16:49.924Z,93063.91
2022-08-07T16:19:58.782Z,93069.88
2022-08-07T16:22:38.240Z,93068.72
2022-08-07T16:25:23.235Z,93064.38
2022-08-07T16:30:08.246Z,93067.88
2022-08-07T16:31:50.773Z,93061.63
2022-08-07T16:34:51.513Z,93062.41
2022-08-07T16:38:04.117Z,93066.34
2022-08-07T16:40:30.733Z,93065.63
2022-08-07T16:43:04.208Z,93073.00
2022-08-07T16:46:21.414Z,93070.75
2022-08-07T16:50:27.097Z,93078.31
2022-08-07T16:52:41.797Z,93082.13
2022-08-07T16:55:18.542Z,93079.97
2022-08-07T16:58:02.232Z,93083.41
2022-08-07T17:00:50.138Z,93086.50
2022-08-07T17:03:58.014Z,93081.69
2022-08-07T17:06:42.545Z,93076.91
2022-08-07T17:10:08.115Z,93085.25
2022-08-07T17:12:34.510Z,93078.53
2022-08-07T17:15:07.445Z,93074.06
2022-08-07T17:17:55.346Z,93083.97
2022-08-07T17:20:35.556Z,93080.28
2022-08-07T17:23:22.439Z,93072.53
2022-08-07T17:26:23.486Z,93071.06
2022-08-07T17:29:19.076Z,93067.94
2022-08-07T17:32:49.375Z,93071.34
2022-08-07T17:35:51.369Z,93066.22
2022-08-07T17:38:33.394Z,93067.03
2022-08-07T17:42:04.455Z,93067.81
2022-08-07T17:44:41.708Z,93062.19
2022-08-07T17:47:38.223Z,93061.47
2022-08-07T17:50:16.408Z,93063.94
2022-08-07T17:53:01.019Z,93073.28
2022-08-07T17:55:55.795Z,93060.94
2022-08-07T17:58:40.474Z,93073.78
2022-08-07T18:01:24.939Z,93072.31
2022-08-07T18:04:16.612Z,93075.16
2022-08-07T18:07:20.503Z,93081.78
2022-08-07T18:10:05.834Z,93087.06
2022-08-07T18:13:09.666Z,93084.75
2022-08-07T18:15:54.805Z,93085.66
2022-08-07T18:18:46.499Z,93085.47
2022-08-07T18:21:55.106Z,93100.56
2022-08-07T18:24:35.554Z,93108.78
2022-08-07T18:27:08.170Z,93103.03
2022-08-07T18:30:05.750Z,93113.38
2022-08-07T18:32:52.314Z,93119.00
2022-08-07T18:35:21.832Z,93114.81
2022-08-07T18:38:55.947Z,93124.22
2022-08-07T18:41:17.145Z,93127.97
2022-08-07T18:44:05.613Z,93138.28
2022-08-07T18:46:51.194Z,93134.59
2022-08-07T18:50:30.415Z,93142.84
2022-08-07T18:52:51.907Z,93137.28
2022-08-07T18:55:40.979Z,93139.97
2022-08-07T18:58:25.168Z,93142.94
2022-08-07T19:02:17.427Z,93152.44
2022-08-07T19:04:14.482Z,93150.47
2022-08-07T19:06:51.559Z,93154.56
2022-08-07T19:09:57.454Z,93154.22
2022-08-07T19:12:48.621Z,93157.06
2022-08-07T19:16:02.172Z,93157.66
2022-08-07T19:18:34.501Z,93169.78
2022-08-07T19:21:48.092Z,93169.97
2022-08-07T19:24:30.795Z,93174.56
2022-08-07T19:28:29.518Z,93173.50
2022-08-07T19:31:04.084Z,93179.59
2022-08-07T19:32:59.800Z,93185.94
2022-08-07T19:35:28.430Z,93188.13
2022-08-07T19:38:03.282Z,93183.00
2022-08-07T19:40:38.481Z,93185.53
2022-08-07T19:43:21.629Z,93185.72
2022-08-07T19:46:10.709Z,93185.41
2022-08-07T19:48:43.609Z,93187.50
2022-08-07T19:51:20.509Z,93185.28
2022-08-07T19:54:35.746Z,93187.94
2022-08-07T19:58:02.557Z,93184.22
2022-08-07T19:59:41.712Z,93188.03
2022-08-07T20:02:19.840Z,93178.75
2022-08-07T20:04:57.892Z,93178.94
2022-08-07T20:07:47.201Z,93179.56
2022-08-07T20:10:36.282Z,93180.19
2022-08-07T20:13:23.015Z,93183.78
2022-08-07T20:15:57.560Z,93178.91
2022-08-07T20:18:33.359Z,93176.06
2022-08-07T20:21:14.559Z,93179.50
2022-08-07T20:23:54.229Z,93176.66
2022-08-07T20:26:29.916Z,93175.38
2022-08-07T20:29:10.656Z,93179.09
2022-08-07T20:31:46.401Z,93174.84
2022-08-07T20:34:15.032Z,93179.84
2022-08-07T20:36:43.977Z,93172.91
2022-08-07T20:40:01.401Z,93177.25
2022-08-07T20:42:14.985Z,93172.47
2022-08-07T20:44:45.648Z,93177.91
2022-08-07T20:47:25.002Z,93167.50
2022-08-07T20:49:58.049Z,93167.84
2022-08-07T20:52:50.717Z,93176.50
2022-08-07T20:55:14.861Z,93165.47
2022-08-07T20:58:02.878Z,93170.19
2022-08-07T21:00:46.047Z,93173.13
2022-08-07T21:03:23.272Z,93180.91
2022-08-07T21:06:12.301Z,93182.09
2022-08-07T21:09:14.126Z,93180.63
2022-08-07T21:11:50.172Z,93187.09
2022-08-07T21:14:33.906Z,93189.28
2022-08-07T21:18:01.145Z,93182.00
2022-08-07T21:20:00.906Z,93192.06
2022-08-07T21:22:38.766Z,93194.84
2022-08-07T21:25:20.123Z,93185.03
2022-08-07T21:28:19.102Z,93192.31
2022-08-07T21:31:15.060Z,93193.00
2022-08-07T21:34:21.702Z,93195.44
2022-08-07T21:37:00.673Z,93201.75
2022-08-07T21:39:54.980Z,93198.91
2022-08-07T21:42:42.376Z,93207.66
2022-08-07T21:46:10.583Z,93207.56
2022-08-07T21:48:42.352Z,93200.47
2022-08-07T21:51:28.539Z,93192.88
2022-08-07T21:54:27.540Z,93198.88
2022-08-07T21:57:39.852Z,93186.47
2022-08-07T22:00:22.281Z,93187.72
2022-08-07T22:02:55.111Z,93194.47
2022-08-07T22:05:44.296Z,93194.56
2022-08-07T22:08:14.528Z,93200.16
2022-08-07T22:10:49.592Z,93195.31
2022-08-07T22:13:17.168Z,93193.44
2022-08-07T22:16:40.234Z,93183.69
2022-08-07T22:19:23.767Z,93179.97
2022-08-07T22:22:10.894Z,93188.56
2022-08-07T22:25:05.716Z,93192.75
2022-08-07T22:28:24.633Z,93192.25
2022-08-07T22:30:35.534Z,93183.28
2022-08-07T22:33:13.065Z,93183.88
2022-08-07T22:36:11.978Z,93185.22
2022-08-07T22:39:01.098Z,93192.44
2022-08-07T22:42:03.237Z,93190.00
2022-08-07T22:44:29.316Z,93189.72
2022-08-07T22:47:16.877Z,93187.06
2022-08-07T22:50:20.654Z,93185.22
2022-08-07T22:54:05.333Z,93193.16
2022-08-07T22:56:13.009Z,93188.63
2022-08-07T22:59:05.022Z,93178.38
2022-08-07T23:02:01.202Z,93185.59
2022-08-07T23:04:58.580Z,93184.59
2022-08-07T23:07:58.261Z,93182.25
2022-08-07T23:10:59.848Z,93185.72
2022-08-07T23:13:48.871Z,93191.13
2022-08-07T23:17:15.593Z,93185.06
2022-08-07T23:20:13.530Z,93182.09
2022-08-07T23:24:06.625Z,93186.13
2022-08-07T23:26:25.045Z,93180.44
2022-08-07T23:29:04.137Z,93183.66
2022-08-07T23:34:23.333Z,93188.66
2022-08-07T23:35:22.517Z,93187.13
2022-08-07T23:38:19.235Z,93192.56
2022-08-07T23:41:16.374Z,93183.13
2022-08-07T23:44:29.743Z,93182.88
2022-08-07T23:47:16.645Z,93186.91
2022-08-07T23:49:56.348Z,93188.81
2022-08-07T23:53:16.958Z,93188.56
2022-08-07T23:55:52.070Z,93188.50
2022-08-07T23:58:39.033Z,93193.41
